Enschede Airport Twente

EHTW · Overijssel, 荷兰

罗盘
风向 的 风向 230° Enschede Airport Twente 5/23
风: 6 kt, 2 beaufort

6 kt

1 kt
改变
0 1.000 2.000 3.000 4.000 5.000
CAVOK
METAR EDDG 072250Z AUTO 23006KT CAVOK 03/01 Q1010 BECMG BKN010

METAR Enschede Airport Twente - EHTW/ENS

Enschede Airport Twente是,荷兰中的中型机场。 该机场有一条跑道: 5/23. 该领域的国际民航组织标志是EHTW 它的国际航空运输协会代码是ENS.

这份报告是针对2022年12月7日 23:50, 当地时间在Münster Osnabrück Airport进行的。

机场观察

风向为230°,速度为6 kt。

天气为CAVOK。这意味着在5.000 ft或MSA(最低安全高度)以下(以较高者为准)以下没有云。这也意味着没有观测到积雨云或高耸的积云,可见度为10 km 或者更多或更高。此外,不会有雾,降雨或其他重要天气。

温度为3 °C,阵风为-2 °C。 露点为1 °C,相对湿度为87%。 海平面上的气压为1010 hPa (QNH)。

发展趋势

  • 变得

    可变方向的风很小或没有。 碎云在1.000 ft的高度.

白天

今天,太阳从08:27升起,在16:20降落。 这适用于Enschede Airport Twente,世界夏令时可能有所不同。 当地时间与世界标准时间之间的时差为+1 小时。 当前,没有夏令时有效。

公司介绍

我们没有关于这个机场的公司信息。

体会

到Vliegles.nl去找飞行课程,跳伞和其他飞行体验。 浏览页面,了解Enschede Airport Twente附近所有可用的活动。 你也可以使用搜索功能来寻找你所在地附近的特定飞行课程、跳伞或其他飞行体验。

跑道

Id 标题 侧风 逆风 侧风 %
5/23 056°-236° 6 kt 10 %

逆风成分最大的方向会被突出显示,并用于横风计算。 这并不一定意味着这个方向在使用。

温度 & 天气

温度 3 °C
露点 1 °C
相对湿度 87%
风寒 -2 °C
Kp-index 2 (0-9)

白天

日出
08:23 (8:09)
中午
12:20
日落
16:18

小工具

你想在你的网站上有一个关于Enschede Airport Twente的当前航空天气(METAR)的小部件吗?

显示HTML代码

我们和第三方通过cookies跟踪您在我们网站上的互联网行为。如果你继续,我们认为你同意我们的饼干政策